Etusivu
METAR-TAF:

METAR-TAF

Lentoasemat :

Mécheria, Algeria

Leveyspiiri: 34-56N, Pituuspiiri: 000-26W, korkeus merenpinnasta: 1149 m

Tämänhetkinen sää

Tämä raportti tehtiin 32 minuuttia sitten, kello 18.00 UTC
Tuuli 12 kn lounaasta
Lämpötila 31°C
Kosteus 15%
Ilmanpaine 1017 hPa
Näkyvyys: 3000 m
Muutamia pilviä 3000 ft:n korkeudessa
Hajonneita pilviä 10000 ft:n korkeudessa
matalaa pölymyrsky

METAR: DAAY 201800Z 22012KT 3000 DRDU FEW030 BKN100 31/01 Q1017

Aika: 19:32 (18:32 UTC)

Sääennuste

Tämä raportti tehtiin 1 tunti ja 32 minuuttia sitten, kello 17.00 UTC
Ennuste voimassa 20. päivästä klo 18 UTC - 21. päivään klo 03 UTC
Tuuli 17 kn lännestä
Näkyvyys: 3000 m
Muutamia pilviä 3000 ft:n korkeudessa
Hajonneita pilviä 10000 ft:n korkeudessa
matalaa pölymyrsky
Tulossa
20. päivästä klo 21 UTC - 20. päivään klo 24 UTC
Tuuli 12 kn pohjoisesta/koillisesta
Näkyvyys: 8000 m

TAF: DAAY 201700Z 2018/2103 28017KT 3000 DRDU FEW030 BKN100 BECMG 2021/2024 02012KT 8000 NSW

Säähavainnot ja -ennusteet yli 4000 lentoasemalta (METAR- ja TAF-raportit).

Käytössä olevat sääasemat on merkitty karttaan keltaisilla ja punaisilla pisteillä.

Aseta hiiri pisteen päälle nähdäksesi sääaseman nimen.

Klikkaa sitten nähdäksesi säähavainnot ja -ennusteet.

Kartan vaihtaminen: klikkaa mustalla rastilla varustettuja vihreitä pisteitä, niin voit zoomata sisään; viivalla varustettua vihreää pistettä, niin voit zoomata ulos tai vihreitä nuolia, niin pääset viereisille kartoille.


METAR-TAF: